Terminal Aerodrome Forecast
Issued by NWS

Home | Current Version | Previous Version | Text Only | Print | Product List | Glossary On
Versions: 1 2 3 4 5 6 7 8 9 10 11 12 13 14 15 16 17 18 19 20 21 22 23 24 25 26 27 28 29 30
850
FTUS44 KLIX 241741
TAFMCB
TAF
KMCB 241741Z 2418/2518 00000KT P6SM VCSH FEW018 BKN090 OVC110
     FM242000 26006KT 4SM TSRA BKN020CB
     FM242200 26005KT P6SM -RA BKN015 OVC045
     FM250000 VRB03KT P6SM BKN015 OVC045
     FM250500 VRB03KT P6SM BKN008 PROB30 2505/2509 2SM -TSRA
      OVC003CB
     FM251000 VRB03KT 3SM BR BKN008=

USA.gov is the U.S. government's official web portal to all federal, state and local government web resources and services.